Aérodrome :
LOGIN :

S'inscrire | Disclaimer

   EN    FR    IT 

 










Légende :    VFR   VFR Marginal   IFR   IFR Intensif   IFR Très Intensif
Visi : 
Plafond : 
>= 8 km
>= 3000ft
5 à 8 km
1000 à 3000 ft
1500m à 5 km
500 à 1000 ft
800 à 1500m
200 à 500 ft
< 800m
< 200 ft
Symboles :   Orages  Brouillard  Fortes neiges  Fortes précipitations  Vent > 20 kt
SIGMETs :   Divers  Orages  Givrage  Turbulence  Onde Orograph.  Cendres Volcan.






- Altitude de l'aérodrome : 1299 ft


EDTY - Adolf Würth

DERNIER METAR :
  • 240520Z AUTO 28007KT 9999 // SCT011/// BKN019/// OVC093/// 12/10 Q1017

METARs EXPIRÉS :
  • 240450Z AUTO 27008KT 9999 // SCT010/// SCT012/// OVC032/// 12/11 Q1017
  • 240420Z AUTO 26005KT 9999 // SCT010/// BKN013/// OVC035/// 12/11 Q1017
  • 240350Z AUTO 26004KT 9999 // BKN010/// BKN019/// OVC045/// 13/11 Q1017
  • 240320Z AUTO 26004KT 9999 // BKN010/// OVC017/// 13/11 Q1016
  • 240250Z AUTO 26006KT 9999 // BKN010/// OVC013/// 13/11 Q1016

Prévision TAF périmée.



MET'MAP, la Météo Aéronautique d'un coup d'oeil ! - Copyright ORBIFLY Décembre 2007 - Disclaimer

ORBIFLY MET'MAP TEAM :

Programmation & Développement : Alexandra Zaïnal
Sur une idée originale de : Baudouin d'Aumeries
Assistance à la programmation : Marc-Olivier Méhu
Soutien technique & logistique : Manuel Goepfert

Contact : metmap@orbifly.com




SOURCES & CREDITS :

   NOAA